Time;durP1;ratioP1;P1;durP2;ratioP2;P2;SDS_P1;SDS_P2;PMS_P1;PMS_P2;Temp;Humidity;BMP_temperature;BMP_pressure;BME280_temperature;BME280_humidity;BME280_pressure;Samples;Min_cycle;Max_cycle;Signal;HPM_P1;HPM_P2
2023/12/24 00:00:22;;;;;;;;;;;16.40;58.60;;;;;;7397375;19;1855;-73
2023/12/24 00:02:48;;;;;;;;;;;16.30;58.50;;;;;;7399227;19;1391;-73
2023/12/24 00:05:13;;;;;;;;;;;16.30;58.50;;;;;;7396657;19;2926;-73
2023/12/24 00:07:38;;;;;;;;;;;16.30;58.60;;;;;;7392687;19;1288;-72
2023/12/24 00:10:04;;;;;;;;;;;16.30;59.20;;;;;;7391027;19;2783;-72
2023/12/24 00:12:30;;;;;;;;;;;16.30;58.60;;;;;;7394570;19;2879;-72
2023/12/24 00:14:55;;;;;;;;;;;16.30;58.80;;;;;;7398423;19;1414;-72
2023/12/24 00:17:21;;;;;;;;;;;16.20;58.50;;;;;;7396065;19;2565;-72
2023/12/24 00:19:46;;;;;;;;;;;16.20;58.70;;;;;;7391328;19;3282;-72
2023/12/24 00:22:12;;;;;;;;;;;16.20;58.70;;;;;;7397933;19;1421;-72
2023/12/24 00:24:37;;;;;;;;;;;16.10;58.70;;;;;;7391156;19;4155;-72
2023/12/24 00:27:03;;;;;;;;;;;16.10;58.60;;;;;;7393876;19;2934;-72
2023/12/24 00:29:28;;;;;;;;;;;16.10;58.70;;;;;;7395751;19;1476;-72
2023/12/24 00:31:54;;;;;;;;;;;16.10;58.60;;;;;;7395032;19;3376;-72
2023/12/24 00:34:19;;;;;;;;;;;16.10;58.70;;;;;;7396449;19;3005;-72
2023/12/24 00:36:44;;;;;;;;;;;16.00;58.70;;;;;;7396867;19;1439;-72
2023/12/24 00:39:10;;;;;;;;;;;16.00;58.80;;;;;;7391727;19;3099;-72
2023/12/24 00:41:39;;;;;;;;;;;16.00;58.90;;;;;;7398472;19;776;-72
2023/12/24 00:44:05;;;;;;;;;;;16.00;58.90;;;;;;7396631;19;1766;-72
2023/12/24 00:46:30;;;;;;;;;;;16.00;59.00;;;;;;7393461;19;4060;-72
2023/12/24 00:48:55;;;;;;;;;;;15.90;58.90;;;;;;7404481;19;1174;-72
2023/12/24 00:51:21;;;;;;;;;;;15.90;58.90;;;;;;7400397;19;800;-72
2023/12/24 00:53:46;;;;;;;;;;;15.90;59.00;;;;;;7398252;19;3541;-72
2023/12/24 00:56:12;;;;;;;;;;;15.90;59.00;;;;;;7402645;19;1535;-72
2023/12/24 00:58:37;;;;;;;;;;;15.90;59.00;;;;;;7403262;19;1853;-72
2023/12/24 01:01:03;;;;;;;;;;;15.90;59.10;;;;;;7399217;19;2691;-72
2023/12/24 01:03:29;;;;;;;;;;;15.80;59.10;;;;;;7401298;19;2598;-72
2023/12/24 01:05:54;;;;;;;;;;;15.80;59.30;;;;;;7400924;19;997;-72
2023/12/24 01:08:20;;;;;;;;;;;15.80;59.30;;;;;;7396240;19;2864;-72
2023/12/24 01:10:45;;;;;;;;;;;15.80;59.30;;;;;;7398783;19;875;-72
2023/12/24 01:13:10;;;;;;;;;;;15.80;59.50;;;;;;7402139;19;2622;-72
2023/12/24 01:15:36;;;;;;;;;;;15.80;59.40;;;;;;7398119;19;3071;-72
2023/12/24 01:18:01;;;;;;;;;;;15.70;59.40;;;;;;7400666;19;841;-72
2023/12/24 01:20:27;;;;;;;;;;;15.80;59.50;;;;;;7398825;19;3331;-72
2023/12/24 01:22:52;;;;;;;;;;;15.70;59.40;;;;;;7399450;19;2852;-72
2023/12/24 01:25:18;;;;;;;;;;;15.70;59.50;;;;;;7403697;19;3154;-72
2023/12/24 01:27:43;;;;;;;;;;;15.70;59.50;;;;;;7402526;19;1735;-72
2023/12/24 01:30:09;;;;;;;;;;;15.70;59.60;;;;;;7400047;19;3377;-72
2023/12/24 01:32:34;;;;;;;;;;;15.70;59.60;;;;;;7402353;19;1867;-73
2023/12/24 01:35:00;;;;;;;;;;;15.70;59.60;;;;;;7398631;19;1013;-72
2023/12/24 01:37:25;;;;;;;;;;;15.70;59.70;;;;;;7397854;19;3543;-72
2023/12/24 01:39:50;;;;;;;;;;;15.60;59.60;;;;;;7401459;19;1861;-72
2023/12/24 01:42:16;;;;;;;;;;;15.60;59.60;;;;;;7398050;19;2081;-72
2023/12/24 01:44:41;;;;;;;;;;;15.60;59.80;;;;;;7398035;19;4318;-72
2023/12/24 01:47:07;;;;;;;;;;;15.60;59.70;;;;;;7401375;19;1537;-72
2023/12/24 01:49:32;;;;;;;;;;;15.60;59.70;;;;;;7398583;19;1055;-72
2023/12/24 01:51:58;;;;;;;;;;;15.60;59.70;;;;;;7395579;19;2843;-72
2023/12/24 01:54:23;;;;;;;;;;;15.50;59.80;;;;;;7402042;19;2514;-72
2023/12/24 01:56:49;;;;;;;;;;;15.50;59.80;;;;;;7398600;19;1631;-72
2023/12/24 01:59:14;;;;;;;;;;;15.50;59.80;;;;;;7396976;19;2725;-72
2023/12/24 02:01:40;;;;;;;;;;;15.50;59.90;;;;;;7399972;19;1758;-72
2023/12/24 02:04:05;;;;;;;;;;;15.50;59.80;;;;;;7397024;19;1139;-72
2023/12/24 02:06:31;;;;;;;;;;;15.50;59.90;;;;;;7399459;19;2751;-72
2023/12/24 02:08:57;;;;;;;;;;;15.50;59.80;;;;;;7396603;19;1369;-72
2023/12/24 02:11:22;;;;;;;;;;;15.50;60.00;;;;;;7397247;19;1337;-72
2023/12/24 02:13:48;;;;;;;;;;;15.40;59.60;;;;;;7399347;19;2774;-72
2023/12/24 02:16:17;;;;;;;;;;;15.60;59.30;;;;;;7401299;19;1426;-72
2023/12/24 02:18:43;;;;;;;;;;;15.70;59.10;;;;;;7396585;19;1849;-72
2023/12/24 02:21:08;;;;;;;;;;;15.90;58.80;;;;;;7400909;19;2653;-72
2023/12/24 02:23:33;;;;;;;;;;;16.10;58.50;;;;;;7398689;19;1507;-72
2023/12/24 02:26:05;;;;;;;;;;;16.40;58.10;;;;;;7396646;19;1193;-72
2023/12/24 02:28:31;;;;;;;;;;;16.70;57.40;;;;;;7398337;19;2783;-72
2023/12/24 02:30:57;;;;;;;;;;;17.10;56.40;;;;;;7399921;19;1429;-72
2023/12/24 02:33:27;;;;;;;;;;;17.70;55.60;;;;;;7396397;19;870;-73
2023/12/24 02:35:53;;;;;;;;;;;18.20;54.40;;;;;;7397591;19;2815;-72
2023/12/24 02:38:18;;;;;;;;;;;18.50;53.70;;;;;;7396949;19;1061;-72
2023/12/24 02:40:43;;;;;;;;;;;18.80;52.80;;;;;;7396103;19;1391;-72
2023/12/24 02:43:09;;;;;;;;;;;19.10;52.30;;;;;;7397976;19;2673;-73
2023/12/24 02:45:35;;;;;;;;;;;19.10;52.00;;;;;;7398183;19;1762;-72
2023/12/24 02:48:00;;;;;;;;;;;19.20;51.90;;;;;;7397682;19;1395;-72
2023/12/24 02:50:26;;;;;;;;;;;19.10;51.90;;;;;;7398695;19;3185;-73
2023/12/24 02:52:51;;;;;;;;;;;19.00;52.10;;;;;;7396634;19;806;-72
2023/12/24 02:55:17;;;;;;;;;;;18.90;52.50;;;;;;7396164;19;875;-72
2023/12/24 02:57:42;;;;;;;;;;;18.70;52.60;;;;;;7396076;19;2688;-72
2023/12/24 03:00:08;;;;;;;;;;;18.70;52.70;;;;;;7394454;19;1821;-72
2023/12/24 03:02:34;;;;;;;;;;;18.70;52.80;;;;;;7401415;19;874;-72
2023/12/24 03:04:59;;;;;;;;;;;18.70;53.20;;;;;;7397446;19;2798;-73
2023/12/24 03:07:25;;;;;;;;;;;18.60;53.20;;;;;;7396495;19;1272;-73
2023/12/24 03:09:50;;;;;;;;;;;18.60;53.30;;;;;;7392130;19;1117;-72
2023/12/24 03:12:17;;;;;;;;;;;18.50;53.50;;;;;;7395550;19;2803;-73
2023/12/24 03:14:42;;;;;;;;;;;18.50;53.70;;;;;;7397741;19;1519;-72
2023/12/24 03:17:08;;;;;;;;;;;18.50;53.70;;;;;;7399766;19;1687;-73
2023/12/24 03:19:33;;;;;;;;;;;18.50;53.80;;;;;;7395763;19;3874;-73
2023/12/24 03:21:59;;;;;;;;;;;18.50;53.70;;;;;;7396767;19;1281;-73
2023/12/24 03:24:24;;;;;;;;;;;18.60;53.80;;;;;;7397301;19;867;-73
2023/12/24 03:26:50;;;;;;;;;;;18.60;53.60;;;;;;7397704;19;3891;-73
2023/12/24 03:29:16;;;;;;;;;;;18.60;53.50;;;;;;7399213;19;1628;-73
2023/12/24 03:31:41;;;;;;;;;;;18.60;53.50;;;;;;7399523;19;1486;-72
2023/12/24 03:34:07;;;;;;;;;;;18.60;53.80;;;;;;7397771;19;3515;-73
2023/12/24 03:36:32;;;;;;;;;;;18.70;53.70;;;;;;7397641;19;1519;-73
2023/12/24 03:38:57;;;;;;;;;;;18.70;53.80;;;;;;7397427;19;1856;-73
2023/12/24 03:41:23;;;;;;;;;;;18.70;53.60;;;;;;7398455;19;2753;-73
2023/12/24 03:43:48;;;;;;;;;;;18.60;53.50;;;;;;7397193;19;1769;-73
2023/12/24 03:46:20;;;;;;;;;;;18.60;53.80;;;;;;7397894;19;1472;-73
2023/12/24 03:48:45;;;;;;;;;;;18.70;53.70;;;;;;7396168;19;3269;-73
2023/12/24 03:51:11;;;;;;;;;;;18.80;53.50;;;;;;7394485;19;1172;-73
2023/12/24 03:53:37;;;;;;;;;;;18.80;53.60;;;;;;7394503;19;838;-72
2023/12/24 03:56:03;;;;;;;;;;;18.80;53.40;;;;;;7395824;19;2831;-73
2023/12/24 03:58:29;;;;;;;;;;;18.70;53.50;;;;;;7396805;19;1854;-72
2023/12/24 04:00:54;;;;;;;;;;;18.70;53.50;;;;;;7394621;19;1491;-73
2023/12/24 04:03:20;;;;;;;;;;;18.70;53.50;;;;;;7395503;19;4109;-73
2023/12/24 04:05:45;;;;;;;;;;;18.70;53.60;;;;;;7393684;19;816;-73
2023/12/24 04:08:11;;;;;;;;;;;18.70;53.80;;;;;;7392614;19;1394;-72
2023/12/24 04:10:39;;;;;;;;;;;18.70;53.80;;;;;;7395935;19;3266;-72
2023/12/24 04:13:05;;;;;;;;;;;18.60;53.80;;;;;;7394052;19;1576;-73
2023/12/24 04:15:31;;;;;;;;;;;18.50;54.00;;;;;;7398711;19;1434;-72
2023/12/24 04:17:56;;;;;;;;;;;18.50;54.10;;;;;;7395560;19;2877;-73
2023/12/24 04:20:22;;;;;;;;;;;18.50;54.20;;;;;;7395170;19;1846;-72
2023/12/24 04:22:47;;;;;;;;;;;18.50;54.50;;;;;;7391864;19;2630;-73
2023/12/24 04:25:13;;;;;;;;;;;18.50;54.40;;;;;;7396320;19;3051;-72
2023/12/24 04:27:38;;;;;;;;;;;18.60;54.50;;;;;;7395776;19;1454;-73
2023/12/24 04:30:04;;;;;;;;;;;18.60;54.40;;;;;;7395882;19;2760;-72
2023/12/24 04:32:29;;;;;;;;;;;18.60;54.40;;;;;;7395619;19;2614;-73
2023/12/24 04:34:55;;;;;;;;;;;18.50;54.40;;;;;;7396126;19;1426;-72
2023/12/24 04:37:20;;;;;;;;;;;18.60;54.40;;;;;;7392409;19;2937;-72
2023/12/24 04:39:46;;;;;;;;;;;18.60;54.40;;;;;;7394928;19;3103;-73
2023/12/24 04:42:11;;;;;;;;;;;18.60;54.60;;;;;;7394266;19;1745;-73
2023/12/24 04:44:37;;;;;;;;;;;18.60;54.50;;;;;;7395027;19;2555;-72
2023/12/24 04:47:03;;;;;;;;;;;18.60;54.50;;;;;;7396115;19;3102;-72
2023/12/24 04:49:28;;;;;;;;;;;18.60;54.70;;;;;;7394049;19;1551;-72
2023/12/24 04:51:54;;;;;;;;;;;18.60;54.70;;;;;;7393724;19;2711;-72
2023/12/24 04:54:20;;;;;;;;;;;18.60;54.60;;;;;;7397043;19;1135;-73
2023/12/24 04:56:46;;;;;;;;;;;18.60;54.70;;;;;;7395484;19;1554;-72
2023/12/24 04:59:11;;;;;;;;;;;18.60;54.60;;;;;;7391366;19;2649;-73
2023/12/24 05:01:37;;;;;;;;;;;18.60;54.80;;;;;;7396792;19;2872;-72
2023/12/24 05:04:03;;;;;;;;;;;18.70;55.00;;;;;;7394108;19;1909;-72
2023/12/24 05:06:29;;;;;;;;;;;18.60;54.80;;;;;;7393008;19;2652;-72
2023/12/24 05:08:54;;;;;;;;;;;18.60;55.10;;;;;;7393987;19;1382;-73
2023/12/24 05:11:20;;;;;;;;;;;18.50;55.10;;;;;;7391211;19;827;-73
2023/12/24 05:13:45;;;;;;;;;;;18.50;55.30;;;;;;7393053;19;2648;-73
2023/12/24 05:16:10;;;;;;;;;;;18.50;55.40;;;;;;7395656;19;1525;-73
2023/12/24 05:18:36;;;;;;;;;;;18.50;55.50;;;;;;7391376;19;1834;-73
2023/12/24 05:21:01;;;;;;;;;;;18.40;55.60;;;;;;7390454;19;2594;-73
2023/12/24 05:23:27;;;;;;;;;;;18.50;55.50;;;;;;7395627;19;3145;-73
2023/12/24 05:25:53;;;;;;;;;;;18.50;55.50;;;;;;7391126;19;890;-72
2023/12/24 05:28:18;;;;;;;;;;;18.50;55.30;;;;;;7391780;19;2671;-72
2023/12/24 05:30:44;;;;;;;;;;;18.50;55.50;;;;;;7396586;19;3100;-72
2023/12/24 05:33:09;;;;;;;;;;;18.60;55.40;;;;;;7395602;19;1410;-72
2023/12/24 05:35:35;;;;;;;;;;;18.50;55.40;;;;;;7398444;19;2664;-73
2023/12/24 05:38:00;;;;;;;;;;;18.50;55.70;;;;;;7398497;19;1204;-73
2023/12/24 05:40:26;;;;;;;;;;;18.50;55.70;;;;;;7399834;19;1838;-73
2023/12/24 05:42:51;;;;;;;;;;;18.50;55.80;;;;;;7398665;19;3861;-73
2023/12/24 05:45:17;;;;;;;;;;;18.50;55.80;;;;;;7399716;19;3086;-73
2023/12/24 05:47:42;;;;;;;;;;;18.60;55.50;;;;;;7398443;19;827;-73
2023/12/24 05:50:08;;;;;;;;;;;18.60;55.60;;;;;;7398626;19;2898;-73
2023/12/24 05:52:33;;;;;;;;;;;18.60;55.60;;;;;;7402393;19;3400;-72
2023/12/24 05:54:59;;;;;;;;;;;18.70;55.40;;;;;;7397840;19;1256;-73
2023/12/24 05:57:25;;;;;;;;;;;18.70;55.30;;;;;;7396527;19;2630;-72
2023/12/24 05:59:50;;;;;;;;;;;18.80;55.40;;;;;;7399882;19;1829;-72
2023/12/24 06:02:17;;;;;;;;;;;18.70;55.50;;;;;;7400721;19;1521;-72
2023/12/24 06:04:42;;;;;;;;;;;18.80;55.40;;;;;;7396916;19;2783;-73
2023/12/24 06:07:08;;;;;;;;;;;18.80;55.40;;;;;;7397562;19;1435;-73
2023/12/24 06:09:33;;;;;;;;;;;18.80;55.40;;;;;;7396954;19;1626;-72
2023/12/24 06:11:59;;;;;;;;;;;18.70;55.50;;;;;;7401203;19;3001;-72
2023/12/24 06:14:24;;;;;;;;;;;18.80;55.50;;;;;;7398925;19;1495;-72
2023/12/24 06:16:50;;;;;;;;;;;18.80;55.40;;;;;;7400379;19;1614;-73
2023/12/24 06:19:15;;;;;;;;;;;18.80;55.40;;;;;;7397043;19;2867;-72
2023/12/24 06:21:40;;;;;;;;;;;18.80;55.40;;;;;;7400943;19;1548;-73
2023/12/24 06:24:06;;;;;;;;;;;18.80;55.40;;;;;;7398998;19;994;-73
2023/12/24 06:26:32;;;;;;;;;;;18.80;55.30;;;;;;7396832;19;3028;-72
2023/12/24 06:28:58;;;;;;;;;;;18.80;55.40;;;;;;7397248;19;1660;-73
2023/12/24 06:31:23;;;;;;;;;;;18.80;55.40;;;;;;7399631;19;1314;-73
2023/12/24 06:33:49;;;;;;;;;;;18.90;55.40;;;;;;7396178;19;2742;-73
2023/12/24 06:36:14;;;;;;;;;;;18.90;55.50;;;;;;7399448;19;1554;-73
2023/12/24 06:38:40;;;;;;;;;;;18.90;55.30;;;;;;7398403;19;1841;-72
2023/12/24 06:41:05;;;;;;;;;;;18.90;55.30;;;;;;7395823;19;2760;-73
2023/12/24 06:43:31;;;;;;;;;;;18.90;55.50;;;;;;7399636;19;1427;-73
2023/12/24 06:45:57;;;;;;;;;;;18.90;55.40;;;;;;7399250;19;1410;-73
2023/12/24 06:48:22;;;;;;;;;;;18.90;55.40;;;;;;7397144;19;2751;-73
2023/12/24 06:50:48;;;;;;;;;;;18.90;55.60;;;;;;7396457;19;870;-73
2023/12/24 06:53:13;;;;;;;;;;;18.90;55.60;;;;;;7400014;19;1638;-73
2023/12/24 06:55:39;;;;;;;;;;;18.80;55.70;;;;;;7399617;19;2691;-72
2023/12/24 06:58:06;;;;;;;;;;;18.80;55.80;;;;;;7397825;19;1694;-72
2023/12/24 07:00:31;;;;;;;;;;;18.80;55.80;;;;;;7394625;19;3399;-73
2023/12/24 07:02:57;;;;;;;;;;;18.80;55.70;;;;;;7391980;19;2956;-72
2023/12/24 07:05:22;;;;;;;;;;;18.80;55.90;;;;;;7399512;19;1417;-73
2023/12/24 07:07:48;;;;;;;;;;;18.80;55.90;;;;;;7399608;19;1517;-73
2023/12/24 07:10:13;;;;;;;;;;;18.70;56.10;;;;;;7394084;19;4312;-72
2023/12/24 07:12:38;;;;;;;;;;;18.60;56.10;;;;;;7394940;19;1525;-72
2023/12/24 07:15:05;;;;;;;;;;;18.60;56.20;;;;;;7399295;19;1728;-73
2023/12/24 07:17:30;;;;;;;;;;;18.70;56.40;;;;;;7396662;19;2693;-73
2023/12/24 07:19:56;;;;;;;;;;;18.70;56.10;;;;;;7396235;19;1842;-73
2023/12/24 07:22:21;;;;;;;;;;;18.80;56.00;;;;;;7395142;19;879;-73
2023/12/24 07:24:47;;;;;;;;;;;18.80;55.80;;;;;;7396444;19;2690;-73
2023/12/24 07:27:12;;;;;;;;;;;18.90;55.80;;;;;;7394488;19;1489;-72
2023/12/24 07:29:40;;;;;;;;;;;18.90;55.70;;;;;;7399870;19;1505;-73
2023/12/24 07:32:05;;;;;;;;;;;19.00;55.80;;;;;;7398346;19;2643;-72
2023/12/24 07:34:31;;;;;;;;;;;18.90;55.60;;;;;;7395140;19;850;-73
2023/12/24 07:36:56;;;;;;;;;;;19.00;55.70;;;;;;7396406;19;844;-72
2023/12/24 07:39:21;;;;;;;;;;;19.00;55.70;;;;;;7395655;19;2735;-73
2023/12/24 07:41:47;;;;;;;;;;;19.10;55.40;;;;;;7395480;19;1411;-73
2023/12/24 07:44:15;;;;;;;;;;;19.10;55.50;;;;;;7392400;19;2991;-73
2023/12/24 07:46:41;;;;;;;;;;;19.00;55.50;;;;;;7395637;19;3100;-73
2023/12/24 07:49:06;;;;;;;;;;;19.00;55.70;;;;;;7394146;19;851;-72
2023/12/24 07:51:32;;;;;;;;;;;18.90;55.80;;;;;;7394355;19;942;-72
2023/12/24 07:53:57;;;;;;;;;;;18.90;55.90;;;;;;7395544;19;2671;-73
2023/12/24 07:56:22;;;;;;;;;;;18.90;56.00;;;;;;7393823;19;1536;-73
2023/12/24 07:58:48;;;;;;;;;;;18.80;56.10;;;;;;7393577;19;1842;-73
2023/12/24 08:01:13;;;;;;;;;;;18.80;56.10;;;;;;7394063;19;2897;-72
2023/12/24 08:03:39;;;;;;;;;;;18.80;56.10;;;;;;7393852;19;3084;-72
2023/12/24 08:06:04;;;;;;;;;;;18.90;56.00;;;;;;7393495;19;1085;-72
2023/12/24 08:08:30;;;;;;;;;;;18.90;55.90;;;;;;7393722;19;3289;-73
2023/12/24 08:10:55;;;;;;;;;;;18.90;55.90;;;;;;7397101;19;1472;-72
2023/12/24 08:13:20;;;;;;;;;;;18.90;55.90;;;;;;7393902;19;775;-72
2023/12/24 08:15:46;;;;;;;;;;;18.90;56.00;;;;;;7394474;19;2637;-72
2023/12/24 08:18:13;;;;;;;;;;;18.90;56.00;;;;;;7394719;19;784;-72
2023/12/24 08:20:39;;;;;;;;;;;18.90;55.90;;;;;;7395681;19;1834;-73
2023/12/24 08:23:07;;;;;;;;;;;19.00;55.90;;;;;;7395138;19;2817;-73
2023/12/24 08:25:32;;;;;;;;;;;19.00;55.90;;;;;;7395129;19;811;-73
2023/12/24 08:27:59;;;;;;;;;;;19.00;55.90;;;;;;7393985;19;1325;-73
2023/12/24 08:30:25;;;;;;;;;;;19.00;55.90;;;;;;7394963;19;2611;-73
2023/12/24 08:32:50;;;;;;;;;;;19.00;55.90;;;;;;7397150;19;874;-72
2023/12/24 08:35:16;;;;;;;;;;;19.10;55.90;;;;;;7394639;19;3220;-73
2023/12/24 08:37:41;;;;;;;;;;;19.10;55.70;;;;;;7394716;19;2704;-72
2023/12/24 08:40:07;;;;;;;;;;;19.10;55.70;;;;;;7393404;19;1888;-73
2023/12/24 08:42:33;;;;;;;;;;;19.20;55.70;;;;;;7393853;19;906;-73
2023/12/24 08:44:58;;;;;;;;;;;19.20;55.80;;;;;;7394125;19;2861;-73
2023/12/24 08:47:23;;;;;;;;;;;19.20;55.70;;;;;;7396627;19;1473;-73
2023/12/24 08:49:49;;;;;;;;;;;19.20;55.60;;;;;;7392815;19;784;-72
2023/12/24 08:52:14;;;;;;;;;;;19.20;55.60;;;;;;7393823;19;3538;-72
2023/12/24 08:54:40;;;;;;;;;;;19.20;55.80;;;;;;7392280;19;965;-72
2023/12/24 08:57:08;;;;;;;;;;;19.20;55.70;;;;;;7390069;19;2528;-73
2023/12/24 08:59:34;;;;;;;;;;;19.20;55.70;;;;;;7394852;19;2956;-73
2023/12/24 09:01:59;;;;;;;;;;;19.30;55.70;;;;;;7395068;19;2018;-73
2023/12/24 09:04:25;;;;;;;;;;;19.20;55.70;;;;;;7390981;19;3367;-72
2023/12/24 09:06:50;;;;;;;;;;;19.20;55.80;;;;;;7396695;19;3122;-73
2023/12/24 09:09:15;;;;;;;;;;;19.30;55.60;;;;;;7397075;19;1399;-73
2023/12/24 09:11:41;;;;;;;;;;;19.20;55.80;;;;;;7401602;19;2465;-73
2023/12/24 09:14:06;;;;;;;;;;;19.20;55.80;;;;;;7402985;19;3285;-73
2023/12/24 09:16:32;;;;;;;;;;;19.20;55.80;;;;;;7401603;19;1505;-73
2023/12/24 09:18:58;;;;;;;;;;;19.30;55.80;;;;;;7400855;19;2664;-72
2023/12/24 09:21:23;;;;;;;;;;;19.30;55.80;;;;;;7403679;19;3082;-73
2023/12/24 09:23:49;;;;;;;;;;;19.30;55.90;;;;;;7400947;19;1085;-73
2023/12/24 09:26:14;;;;;;;;;;;19.30;56.00;;;;;;7400408;19;2783;-73
2023/12/24 09:28:39;;;;;;;;;;;19.30;56.10;;;;;;7401230;19;4067;-73
2023/12/24 09:31:05;;;;;;;;;;;19.30;56.00;;;;;;7400023;19;1111;-73
2023/12/24 09:33:32;;;;;;;;;;;19.30;56.00;;;;;;7398488;19;2746;-73
2023/12/24 09:35:57;;;;;;;;;;;19.20;55.90;;;;;;7401540;19;2791;-73
2023/12/24 09:38:23;;;;;;;;;;;19.20;56.10;;;;;;7398974;19;1126;-73
2023/12/24 09:40:49;;;;;;;;;;;19.30;56.30;;;;;;7393237;19;4023;-73
2023/12/24 09:43:14;;;;;;;;;;;19.30;56.10;;;;;;7399857;19;4220;-73
2023/12/24 09:45:40;;;;;;;;;;;19.40;55.90;;;;;;7399544;19;2745;-73
2023/12/24 09:48:05;;;;;;;;;;;19.40;55.80;;;;;;7397079;19;2481;-73
2023/12/24 09:50:31;;;;;;;;;;;19.40;56.00;;;;;;7401353;19;2453;-73
2023/12/24 09:52:57;;;;;;;;;;;19.40;56.00;;;;;;7399356;19;1314;-72
2023/12/24 09:55:22;;;;;;;;;;;19.50;55.80;;;;;;7398461;19;4143;-74
2023/12/24 09:57:47;;;;;;;;;;;19.50;55.70;;;;;;7403265;19;3031;-72
2023/12/24 10:00:16;;;;;;;;;;;19.50;55.80;;;;;;7396398;19;1834;-72
2023/12/24 10:02:41;;;;;;;;;;;19.50;55.90;;;;;;7400052;19;2746;-73
2023/12/24 10:05:07;;;;;;;;;;;19.50;55.90;;;;;;7400150;19;3435;-73
2023/12/24 10:07:37;;;;;;;;;;;19.50;55.80;;;;;;7400750;19;3159;-73
2023/12/24 10:10:03;;;;;;;;;;;19.50;55.70;;;;;;7394901;19;4311;-73
2023/12/24 10:12:28;;;;;;;;;;;19.60;55.70;;;;;;7397868;19;1319;-73
2023/12/24 10:14:55;;;;;;;;;;;19.60;55.90;;;;;;7397443;19;892;-73
2023/12/24 10:17:27;;;;;;;;;;;19.60;55.80;;;;;;7396049;19;3617;-73
2023/12/24 10:19:52;;;;;;;;;;;19.60;55.60;;;;;;7398973;19;1853;-73
2023/12/24 10:22:17;;;;;;;;;;;19.60;55.70;;;;;;7399867;19;1560;-73
2023/12/24 10:24:43;;;;;;;;;;;19.60;55.80;;;;;;7396848;19;2847;-73
2023/12/24 10:27:10;;;;;;;;;;;19.60;55.80;;;;;;7396884;19;1076;-73
2023/12/24 10:29:36;;;;;;;;;;;19.60;55.80;;;;;;7398781;19;2360;-73
2023/12/24 10:32:02;;;;;;;;;;;19.60;55.80;;;;;;7396963;19;3067;-73
2023/12/24 10:34:28;;;;;;;;;;;19.60;55.80;;;;;;7399220;19;2773;-73
2023/12/24 10:36:53;;;;;;;;;;;19.60;55.90;;;;;;7400659;19;1646;-73
2023/12/24 10:39:24;;;;;;;;;;;19.60;55.90;;;;;;7397422;19;2762;-72
2023/12/24 10:41:53;;;;;;;;;;;19.50;56.00;;;;;;7395482;19;2780;-73
2023/12/24 10:44:19;;;;;;;;;;;19.60;56.10;;;;;;7400848;19;2696;-73
2023/12/24 10:46:44;;;;;;;;;;;19.60;56.10;;;;;;7394191;19;3579;-73
2023/12/24 10:49:10;;;;;;;;;;;19.50;56.10;;;;;;7400186;19;894;-73
2023/12/24 10:51:35;;;;;;;;;;;19.50;56.20;;;;;;7395949;19;840;-73
2023/12/24 10:54:01;;;;;;;;;;;19.50;56.20;;;;;;7395640;19;2683;-73
2023/12/24 10:56:27;;;;;;;;;;;19.50;56.00;;;;;;7397296;19;990;-73
2023/12/24 10:58:57;;;;;;;;;;;19.60;56.10;;;;;;7395482;19;1849;-73
2023/12/24 11:01:23;;;;;;;;;;;19.60;56.10;;;;;;7396618;19;2788;-73
2023/12/24 11:03:48;;;;;;;;;;;19.60;56.20;;;;;;7396140;19;978;-73
2023/12/24 11:06:33;;;;;;;;;;;19.50;56.10;;;;;;7396833;19;2821;-73
2023/12/24 11:08:58;;;;;;;;;;;19.50;56.20;;;;;;7395957;19;2739;-72
2023/12/24 11:11:23;;;;;;;;;;;19.50;56.20;;;;;;7396199;19;1001;-73
2023/12/24 11:13:49;;;;;;;;;;;19.60;56.20;;;;;;7397028;19;1064;-73
2023/12/24 11:16:34;;;;;;;;;;;19.60;56.10;;;;;;7398177;19;2650;-72
2023/12/24 11:19:00;;;;;;;;;;;19.60;56.10;;;;;;7395826;19;1852;-72
2023/12/24 11:21:25;;;;;;;;;;;19.60;56.00;;;;;;7398515;19;1716;-73
2023/12/24 11:24:12;;;;;;;;;;;19.70;56.00;;;;;;7396192;19;3772;-73
2023/12/24 11:26:38;;;;;;;;;;;19.70;55.90;;;;;;7399830;19;1504;-73
2023/12/24 11:29:23;;;;;;;;;;;19.70;55.90;;;;;;7397001;19;3341;-73
2023/12/24 11:31:49;;;;;;;;;;;19.80;56.00;;;;;;7396386;19;2485;-73
2023/12/24 11:34:30;;;;;;;;;;;19.80;56.00;;;;;;7393343;19;4168;-73
2023/12/24 11:37:05;;;;;;;;;;;19.80;55.90;;;;;;7397894;19;1914;-73
2023/12/24 11:39:49;;;;;;;;;;;19.80;56.00;;;;;;7396624;19;2666;-73
2023/12/24 11:42:15;;;;;;;;;;;19.80;55.90;;;;;;7398749;19;1856;-73
2023/12/24 11:44:40;;;;;;;;;;;19.80;56.10;;;;;;7395456;19;2795;-73
2023/12/24 11:47:15;;;;;;;;;;;19.80;56.20;;;;;;7396216;19;1852;-73
2023/12/24 11:49:42;;;;;;;;;;;19.70;56.00;;;;;;7392120;19;3864;-72
2023/12/24 11:52:07;;;;;;;;;;;19.70;56.90;;;;;;7395933;19;2061;-73
2023/12/24 11:54:33;;;;;;;;;;;19.60;56.40;;;;;;7394338;19;2787;-73
2023/12/24 11:56:58;;;;;;;;;;;19.60;56.50;;;;;;7396306;19;1636;-73
2023/12/24 11:59:24;;;;;;;;;;;19.60;56.70;;;;;;7394011;19;4197;-72
2023/12/24 12:01:49;;;;;;;;;;;19.60;56.50;;;;;;7392147;19;4217;-73
2023/12/24 12:04:15;;;;;;;;;;;19.60;56.60;;;;;;7396817;19;3343;-73
2023/12/24 12:06:40;;;;;;;;;;;19.60;56.70;;;;;;7394051;19;3655;-73
2023/12/24 12:09:10;;;;;;;;;;;19.60;56.70;;;;;;7391271;19;4009;-73
2023/12/24 12:11:35;;;;;;;;;;;19.60;56.60;;;;;;7395530;19;3293;-73
2023/12/24 12:14:01;;;;;;;;;;;19.70;56.50;;;;;;7394789;19;4455;-73
2023/12/24 12:16:27;;;;;;;;;;;19.80;56.50;;;;;;7396371;19;1588;-73
2023/12/24 12:18:52;;;;;;;;;;;19.80;56.50;;;;;;7396548;19;1867;-73
2023/12/24 12:21:18;;;;;;;;;;;19.90;56.40;;;;;;7393897;19;3408;-73
2023/12/24 12:23:43;;;;;;;;;;;19.90;56.20;;;;;;7392170;19;3642;-73
2023/12/24 12:26:09;;;;;;;;;;;19.90;56.20;;;;;;7397399;19;3188;-73
2023/12/24 12:28:37;;;;;;;;;;;19.80;56.20;;;;;;7393645;19;3606;-72
2023/12/24 12:31:03;;;;;;;;;;;19.90;56.30;;;;;;7396597;19;1890;-73
2023/12/24 12:33:28;;;;;;;;;;;19.90;56.30;;;;;;7395325;19;1515;-73
2023/12/24 12:35:55;;;;;;;;;;;19.90;56.30;;;;;;7395496;19;2868;-72
2023/12/24 12:38:21;;;;;;;;;;;19.90;56.40;;;;;;7393002;19;823;-72
2023/12/24 12:40:46;;;;;;;;;;;19.80;56.40;;;;;;7391742;19;1845;-72
2023/12/24 12:43:12;;;;;;;;;;;19.80;56.60;;;;;;7405647;19;2986;-73
2023/12/24 12:45:37;;;;;;;;;;;19.80;56.60;;;;;;7409187;19;1517;-72
2023/12/24 12:48:03;;;;;;;;;;;19.80;56.60;;;;;;7405403;19;3633;-72
2023/12/24 12:50:28;;;;;;;;;;;19.80;56.70;;;;;;7408531;19;1533;-72
2023/12/24 12:52:54;;;;;;;;;;;19.80;56.60;;;;;;7409438;19;1472;-72
2023/12/24 12:55:21;;;;;;;;;;;19.90;56.50;;;;;;7408784;19;1517;-73
2023/12/24 12:57:46;;;;;;;;;;;19.90;56.50;;;;;;7407927;19;3994;-73
2023/12/24 13:00:13;;;;;;;;;;;19.90;56.40;;;;;;7407795;19;4431;-73
2023/12/24 13:02:42;;;;;;;;;;;19.90;56.40;;;;;;7408549;19;3232;-73
2023/12/24 13:05:22;;;;;;;;;;;19.90;56.30;;;;;;7408293;19;2790;-73
2023/12/24 13:07:48;;;;;;;;;;;19.90;56.40;;;;;;7409148;19;1450;-73
2023/12/24 13:10:24;;;;;;;;;;;19.90;57.00;;;;;;7404634;19;3314;-73
2023/12/24 13:13:04;;;;;;;;;;;19.90;56.40;;;;;;7411781;19;3032;-73
2023/12/24 13:15:29;;;;;;;;;;;20.00;56.40;;;;;;7404916;19;4375;-73
2023/12/24 13:18:00;;;;;;;;;;;19.90;56.40;;;;;;7404883;19;3783;-73
2023/12/24 13:20:27;;;;;;;;;;;19.90;56.40;;;;;;7400672;19;3151;-73
2023/12/24 13:22:53;;;;;;;;;;;19.90;56.40;;;;;;7409654;19;2987;-73
2023/12/24 13:25:18;;;;;;;;;;;20.00;56.60;;;;;;7405246;19;3450;-73
2023/12/24 13:27:44;;;;;;;;;;;19.90;56.50;;;;;;7410181;19;3132;-73
2023/12/24 13:30:10;;;;;;;;;;;19.90;56.60;;;;;;7408403;19;1860;-73
2023/12/24 13:32:35;;;;;;;;;;;19.80;56.80;;;;;;7406911;19;2954;-73
2023/12/24 13:35:00;;;;;;;;;;;19.80;57.00;;;;;;7402391;19;3001;-73
2023/12/24 13:37:26;;;;;;;;;;;19.70;57.00;;;;;;7404608;19;4482;-73
2023/12/24 13:39:51;;;;;;;;;;;19.70;57.20;;;;;;7404984;19;4389;-74
2023/12/24 13:42:17;;;;;;;;;;;19.80;57.10;;;;;;7407300;19;1887;-74
2023/12/24 13:44:42;;;;;;;;;;;19.80;56.90;;;;;;7408263;19;1508;-73
2023/12/24 13:47:08;;;;;;;;;;;19.90;56.80;;;;;;7406846;19;2846;-73
2023/12/24 13:49:33;;;;;;;;;;;19.90;56.70;;;;;;7403529;19;3747;-73
2023/12/24 13:51:59;;;;;;;;;;;19.90;56.60;;;;;;7407506;19;3051;-73
2023/12/24 13:54:24;;;;;;;;;;;20.00;56.80;;;;;;7395355;19;5195;-73
2023/12/24 13:56:50;;;;;;;;;;;19.90;56.70;;;;;;7397251;19;3231;-73
2023/12/24 13:59:16;;;;;;;;;;;19.90;56.80;;;;;;7398445;19;3289;-73
2023/12/24 14:01:41;;;;;;;;;;;19.90;56.70;;;;;;7394313;19;3936;-73
2023/12/24 14:04:07;;;;;;;;;;;20.00;56.70;;;;;;7395086;19;3658;-73
2023/12/24 14:06:32;;;;;;;;;;;20.00;56.70;;;;;;7398094;19;2793;-73
2023/12/24 14:08:58;;;;;;;;;;;20.00;56.70;;;;;;7394997;19;3042;-73
2023/12/24 14:11:23;;;;;;;;;;;20.00;56.60;;;;;;7399332;19;2684;-73
2023/12/24 14:13:50;;;;;;;;;;;20.10;56.50;;;;;;7399327;19;2208;-73
2023/12/24 14:16:15;;;;;;;;;;;20.10;56.50;;;;;;7397913;19;4511;-73
2023/12/24 14:18:40;;;;;;;;;;;20.10;56.50;;;;;;7395162;19;3866;-73
2023/12/24 14:21:06;;;;;;;;;;;20.10;56.40;;;;;;7396724;19;1819;-73
2023/12/24 14:23:31;;;;;;;;;;;20.20;56.50;;;;;;7397169;19;3028;-73